createdAt,value
2023-05-30T05:54:36.471Z,99.90
2023-05-30T05:59:31.206Z,99.90
2023-05-30T06:01:58.396Z,99.90
2023-05-30T06:04:25.695Z,99.90
2023-05-30T06:06:53.306Z,99.90
2023-05-30T06:09:20.580Z,99.90
2023-05-30T06:11:49.606Z,99.90
2023-05-30T06:14:16.922Z,99.90
2023-05-30T06:16:44.185Z,99.90
2023-05-30T06:19:11.385Z,99.90
2023-05-30T06:21:38.800Z,99.90
2023-05-30T06:24:07.647Z,99.90
2023-05-30T06:26:37.608Z,99.90
2023-05-30T06:29:04.924Z,99.90
2023-05-30T06:31:32.167Z,99.90
2023-05-30T06:33:59.358Z,99.90
2023-05-30T06:36:26.871Z,99.40
2023-05-30T06:38:54.289Z,99.90
2023-05-30T06:41:21.440Z,99.90
2023-05-30T06:43:48.874Z,99.90
2023-05-30T06:46:16.406Z,97.60
2023-05-30T06:48:43.722Z,99.90
2023-05-30T06:51:12.563Z,97.00
2023-05-30T06:53:40.966Z,99.90
2023-05-30T06:56:08.247Z,97.20
2023-05-30T07:01:03.363Z,99.90
2023-05-30T07:03:30.669Z,99.90
2023-05-30T07:05:57.855Z,99.90
2023-05-30T07:10:52.667Z,99.90
2023-05-30T07:13:20.139Z,95.00
2023-05-30T07:15:48.149Z,95.10
2023-05-30T07:18:15.466Z,99.50
2023-05-30T07:20:42.782Z,99.70
2023-05-30T07:23:10.016Z,99.10
2023-05-30T07:25:37.324Z,99.40
2023-05-30T07:28:06.822Z,99.00
2023-05-30T07:30:33.984Z,99.50
2023-05-30T07:33:01.209Z,97.60
2023-05-30T07:37:56.022Z,96.70
2023-05-30T07:45:20.722Z,92.50
2023-05-30T07:47:47.905Z,90.90
2023-05-30T07:50:16.065Z,94.90
2023-05-30T07:55:10.748Z,86.80
2023-05-30T08:00:09.524Z,86.70
2023-05-30T08:05:04.672Z,83.30
2023-05-30T08:07:34.708Z,84.20
2023-05-30T08:10:02.043Z,83.20
2023-05-30T08:12:32.154Z,81.60
2023-05-30T08:14:59.606Z,81.10
2023-05-30T08:17:28.547Z,78.00
2023-05-30T08:19:57.019Z,79.00
2023-05-30T08:22:25.318Z,82.00
2023-05-30T08:24:55.716Z,79.60
2023-05-30T08:27:24.469Z,80.10
2023-05-30T08:29:51.737Z,75.40
2023-05-30T08:32:19.652Z,74.00
2023-05-30T08:34:47.498Z,73.90
2023-05-30T08:37:14.757Z,72.50
2023-05-30T08:39:42.020Z,79.00
2023-05-30T08:42:10.064Z,73.90
2023-05-30T08:44:37.414Z,72.70
2023-05-30T08:47:09.116Z,69.60
2023-05-30T08:49:41.410Z,72.00
2023-05-30T08:52:10.110Z,71.50
2023-05-30T08:55:01.165Z,74.00
2023-05-30T08:57:35.414Z,72.70
2023-05-30T09:00:06.338Z,71.90
2023-05-30T09:02:35.483Z,74.60
2023-05-30T09:05:04.798Z,74.40
2023-05-30T09:07:32.670Z,72.70
2023-05-30T09:10:00.856Z,69.80
2023-05-30T09:12:28.175Z,69.40
2023-05-30T09:14:55.867Z,70.00
2023-05-30T09:17:23.566Z,72.00
2023-05-30T09:19:51.293Z,67.90
2023-05-30T09:22:18.844Z,68.60
2023-05-30T09:25:03.369Z,69.10
2023-05-30T09:27:35.790Z,69.20
2023-05-30T09:30:10.766Z,68.90
2023-05-30T09:32:40.921Z,69.00
2023-05-30T09:35:13.524Z,67.70
2023-05-30T09:37:47.228Z,67.60
2023-05-30T09:42:48.517Z,69.00
2023-05-30T09:45:24.827Z,69.00
2023-05-30T09:47:53.758Z,67.90
2023-05-30T09:50:25.281Z,68.80
2023-05-30T09:52:53.443Z,67.90
2023-05-30T09:57:53.052Z,68.70
2023-05-30T10:00:30.399Z,68.00
2023-05-30T10:02:59.123Z,65.20
2023-05-30T10:05:28.622Z,68.00
2023-05-30T10:07:57.192Z,69.30
2023-05-30T10:12:56.865Z,69.40
2023-05-30T10:15:26.946Z,73.20
2023-05-30T10:18:06.280Z,69.00
2023-05-30T10:20:39.281Z,73.30
2023-05-30T10:23:08.441Z,69.40
2023-05-30T10:25:38.317Z,70.00
2023-05-30T10:28:07.819Z,69.20
2023-05-30T10:30:35.240Z,69.70
2023-05-30T10:33:13.139Z,71.40
2023-05-30T10:35:40.738Z,72.30
2023-05-30T10:38:12.288Z,71.20
2023-05-30T10:41:03.963Z,70.50
2023-05-30T10:43:37.959Z,70.20
2023-05-30T10:46:24.342Z,69.10
2023-05-30T10:49:09.819Z,70.70
2023-05-30T10:51:59.566Z,70.70
2023-05-30T10:54:31.284Z,70.50
2023-05-30T10:57:29.944Z,70.50
2023-05-30T11:00:17.180Z,70.90
2023-05-30T11:02:50.913Z,68.40
2023-05-30T11:05:26.762Z,69.50
2023-05-30T11:07:54.183Z,69.50
2023-05-30T11:10:29.624Z,68.10
2023-05-30T11:13:11.682Z,71.30
2023-05-30T11:15:46.886Z,67.40
2023-05-30T11:18:19.074Z,67.50
2023-05-30T11:20:56.366Z,67.90
2023-05-30T11:23:25.735Z,67.70
2023-05-30T11:25:55.211Z,70.70
2023-05-30T11:28:36.847Z,68.50
2023-05-30T11:31:18.444Z,78.00
2023-05-30T11:33:52.645Z,68.20
2023-05-30T11:36:21.224Z,68.30
2023-05-30T11:38:48.992Z,67.20
2023-05-30T11:41:16.884Z,69.10
2023-05-30T11:43:45.476Z,70.20
2023-05-30T11:48:44.776Z,69.60
2023-05-30T11:51:12.245Z,82.30
2023-05-30T11:53:40.595Z,82.50
2023-05-30T11:56:09.988Z,84.20
2023-05-30T11:58:37.334Z,83.60
2023-05-30T12:01:06.125Z,85.60
2023-05-30T12:03:33.961Z,85.40
2023-05-30T12:06:12.723Z,85.30
2023-05-30T12:08:44.910Z,84.30
2023-05-30T12:11:15.839Z,85.20
2023-05-30T12:13:43.929Z,84.20
2023-05-30T12:16:12.418Z,85.00
2023-05-30T12:18:41.010Z,73.90
2023-05-30T12:21:12.818Z,88.00
2023-05-30T12:23:41.240Z,85.20
2023-05-30T12:26:08.510Z,86.80
2023-05-30T12:28:36.476Z,86.30
2023-05-30T12:31:04.018Z,85.90
2023-05-30T12:33:31.874Z,85.30
2023-05-30T12:35:59.054Z,85.00
2023-05-30T12:38:26.500Z,84.90
2023-05-30T12:40:53.893Z,86.00
2023-05-30T12:43:28.928Z,74.80
2023-05-30T12:46:00.863Z,85.10
2023-05-30T12:48:28.556Z,87.40
2023-05-30T12:50:55.893Z,85.70
2023-05-30T12:53:23.083Z,76.10
2023-05-30T12:55:50.588Z,86.60
2023-05-30T13:00:45.441Z,86.20
2023-05-30T13:03:13.060Z,86.60
2023-05-30T13:05:42.736Z,75.30
2023-05-30T13:08:11.229Z,76.90
2023-05-30T13:10:38.703Z,85.00
2023-05-30T13:13:07.577Z,85.90
2023-05-30T13:15:34.729Z,85.60
2023-05-30T13:18:01.980Z,74.60
2023-05-30T13:20:29.269Z,75.30
2023-05-30T13:22:56.700Z,74.30
2023-05-30T13:25:23.958Z,73.90
2023-05-30T13:27:51.824Z,86.20
2023-05-30T13:30:19.149Z,84.30
2023-05-30T13:32:47.473Z,85.10
2023-05-30T13:35:14.696Z,86.30
2023-05-30T13:37:41.859Z,85.70
2023-05-30T13:40:11.000Z,85.50
2023-05-30T13:42:39.617Z,87.00
2023-05-30T13:45:07.541Z,86.60
2023-05-30T13:47:35.792Z,85.90
2023-05-30T13:50:05.546Z,85.40
2023-05-30T13:52:33.208Z,87.20
2023-05-30T13:55:00.477Z,75.00
2023-05-30T13:57:27.671Z,73.80
2023-05-30T13:59:54.864Z,86.90
2023-05-30T14:02:22.734Z,85.80
2023-05-30T14:04:50.163Z,75.40
2023-05-30T14:07:17.373Z,84.80
2023-05-30T14:09:45.050Z,74.20
2023-05-30T14:12:12.253Z,86.10
2023-05-30T14:14:39.561Z,76.50
2023-05-30T14:17:09.257Z,83.90
2023-05-30T14:19:37.542Z,83.80
2023-05-30T14:22:07.306Z,85.10
2023-05-30T14:24:34.596Z,84.40
2023-05-30T14:27:01.829Z,74.50
2023-05-30T14:29:29.354Z,83.30
2023-05-30T14:31:58.722Z,84.60
2023-05-30T14:34:26.359Z,85.00
2023-05-30T14:36:53.547Z,75.20
2023-05-30T14:39:20.699Z,75.10
2023-05-30T14:44:15.865Z,85.40
2023-05-30T14:46:43.392Z,73.30
2023-05-30T14:49:10.586Z,79.90
2023-05-30T14:56:33.708Z,85.10
2023-05-30T14:59:01.170Z,74.40
2023-05-30T15:11:35.661Z,72.40
2023-05-30T15:14:02.867Z,72.90
2023-05-30T15:16:31.218Z,85.10
2023-05-30T15:18:58.670Z,75.70
2023-05-30T15:21:26.373Z,85.60
2023-05-30T15:23:54.653Z,85.30
2023-05-30T15:26:21.897Z,74.30
2023-05-30T15:28:49.103Z,75.80
2023-05-30T15:31:20.293Z,84.20
2023-05-30T15:36:15.651Z,74.00
2023-05-30T15:38:42.996Z,74.40
2023-05-30T15:41:10.155Z,71.80
2023-05-30T15:48:33.767Z,73.20
2023-05-30T15:51:01.205Z,83.00
2023-05-30T15:53:28.978Z,72.40
